createdAt,value
2018-10-06T00:00:09.151Z,14.70
2018-10-06T00:02:38.104Z,14.73
2018-10-06T00:05:06.839Z,14.50
2018-10-06T00:07:35.612Z,14.63
2018-10-06T00:10:04.355Z,14.23
2018-10-06T00:12:33.035Z,14.83
2018-10-06T00:15:01.671Z,14.47
2018-10-06T00:17:30.333Z,13.50
2018-10-06T00:19:59.299Z,14.57
2018-10-06T00:22:28.526Z,14.70
2018-10-06T00:24:57.147Z,15.07
2018-10-06T00:27:26.802Z,15.07
2018-10-06T00:29:55.834Z,15.90
2018-10-06T00:32:24.612Z,15.30
2018-10-06T00:34:53.310Z,15.37
2018-10-06T00:37:21.998Z,15.47
2018-10-06T00:39:50.734Z,15.73
2018-10-06T00:42:19.413Z,14.80
2018-10-06T00:44:48.127Z,15.57
2018-10-06T00:47:16.823Z,15.60
2018-10-06T00:49:45.389Z,15.80
2018-10-06T00:52:14.009Z,15.90
2018-10-06T00:54:42.657Z,15.73
2018-10-06T00:57:11.308Z,16.20
2018-10-06T00:59:39.915Z,17.20
2018-10-06T01:02:08.625Z,15.90
2018-10-06T01:04:37.273Z,16.00
2018-10-06T01:07:05.975Z,16.20
2018-10-06T01:09:34.683Z,16.33
2018-10-06T01:12:03.305Z,16.50
2018-10-06T01:14:32.081Z,15.73
2018-10-06T01:17:00.700Z,15.60
2018-10-06T01:19:29.287Z,16.10
2018-10-06T01:21:57.988Z,16.53
2018-10-06T01:24:26.654Z,16.53
2018-10-06T01:26:55.318Z,16.37
2018-10-06T01:29:23.913Z,16.70
2018-10-06T01:31:52.588Z,16.47
2018-10-06T01:34:21.211Z,16.13
2018-10-06T01:36:49.869Z,16.33
2018-10-06T01:39:18.508Z,18.47
2018-10-06T01:41:47.152Z,15.40
2018-10-06T01:44:15.713Z,17.20
2018-10-06T01:46:44.363Z,16.80
2018-10-06T01:49:13.009Z,16.73
2018-10-06T01:51:41.609Z,16.87
2018-10-06T01:54:10.241Z,16.90
2018-10-06T01:56:38.844Z,17.03
2018-10-06T01:59:07.773Z,17.13
2018-10-06T02:01:36.399Z,15.80
2018-10-06T02:04:05.010Z,17.00
2018-10-06T02:06:33.719Z,16.50
2018-10-06T02:09:02.362Z,16.30
2018-10-06T02:11:31.024Z,16.60
2018-10-06T02:13:59.682Z,16.40
2018-10-06T02:16:28.340Z,18.23
2018-10-06T02:18:57.034Z,17.43
2018-10-06T02:21:25.664Z,17.13
2018-10-06T02:23:54.298Z,17.17
2018-10-06T02:26:22.983Z,17.67
2018-10-06T02:28:51.618Z,17.23
2018-10-06T02:31:20.244Z,17.03
2018-10-06T02:33:48.833Z,18.17
2018-10-06T02:36:17.495Z,18.60
2018-10-06T02:38:46.140Z,17.90
2018-10-06T02:41:14.789Z,17.53
2018-10-06T02:43:43.474Z,18.23
2018-10-06T02:46:12.153Z,17.67
2018-10-06T02:48:40.855Z,17.20
2018-10-06T02:51:09.455Z,17.97
2018-10-06T02:53:38.106Z,18.27
2018-10-06T02:56:06.850Z,17.20
2018-10-06T02:58:35.841Z,16.80
2018-10-06T03:01:04.514Z,17.43
2018-10-06T03:03:33.123Z,17.93
2018-10-06T03:06:01.861Z,17.77
2018-10-06T03:08:31.441Z,18.30
2018-10-06T03:11:00.080Z,18.10
2018-10-06T03:13:28.683Z,18.30
2018-10-06T03:15:57.717Z,18.67
2018-10-06T03:18:26.423Z,18.67
2018-10-06T03:20:55.035Z,18.67
2018-10-06T03:23:23.643Z,18.30
2018-10-06T03:25:52.333Z,19.00
2018-10-06T03:28:20.987Z,18.30
2018-10-06T03:30:49.591Z,18.03
2018-10-06T03:33:18.212Z,18.63
2018-10-06T03:35:46.847Z,18.23
2018-10-06T03:38:15.469Z,19.00
2018-10-06T03:40:44.083Z,18.73
2018-10-06T03:43:12.690Z,19.40
2018-10-06T03:45:41.310Z,19.47
2018-10-06T03:48:09.990Z,20.53
2018-10-06T03:50:38.668Z,20.00
2018-10-06T03:53:07.344Z,19.73
2018-10-06T03:55:36.356Z,20.43
2018-10-06T03:58:04.949Z,19.67
2018-10-06T04:00:33.547Z,20.33
2018-10-06T04:03:02.225Z,19.70
2018-10-06T04:05:30.855Z,18.97
2018-10-06T04:07:59.487Z,19.93
2018-10-06T04:10:28.142Z,20.93
2018-10-06T04:12:56.760Z,20.47
2018-10-06T04:15:25.446Z,20.00
2018-10-06T04:17:54.071Z,19.97
2018-10-06T04:20:22.695Z,20.63
2018-10-06T04:22:51.377Z,20.37
2018-10-06T04:25:20.004Z,21.17
2018-10-06T04:27:48.623Z,20.40
2018-10-06T04:30:17.312Z,22.27
2018-10-06T04:32:45.916Z,21.63
2018-10-06T04:35:14.525Z,22.37
2018-10-06T04:37:43.167Z,21.53
2018-10-06T04:40:11.787Z,21.80
2018-10-06T04:42:40.399Z,22.53
2018-10-06T04:45:08.982Z,21.93
2018-10-06T04:47:37.633Z,22.13
2018-10-06T04:50:06.427Z,22.20
2018-10-06T04:52:35.061Z,22.47
2018-10-06T04:55:03.737Z,22.73
2018-10-06T04:57:32.458Z,22.70
2018-10-06T05:00:01.161Z,22.93
2018-10-06T05:02:29.851Z,23.13
2018-10-06T05:04:58.530Z,22.03
2018-10-06T05:07:27.108Z,22.47
2018-10-06T05:09:55.732Z,21.80
2018-10-06T05:12:24.360Z,22.00
2018-10-06T05:14:52.998Z,21.50
2018-10-06T05:17:21.660Z,21.73
2018-10-06T05:19:50.260Z,21.47
2018-10-06T05:22:18.807Z,20.60
2018-10-06T05:24:48.305Z,20.47
2018-10-06T05:27:16.893Z,20.47
2018-10-06T05:29:45.485Z,20.13
2018-10-06T05:32:14.098Z,20.93
2018-10-06T05:34:42.632Z,21.20
2018-10-06T05:37:11.246Z,19.77
2018-10-06T05:39:39.832Z,20.67
2018-10-06T05:42:08.502Z,20.27
2018-10-06T05:44:37.086Z,20.20
2018-10-06T05:47:05.774Z,19.73
2018-10-06T05:49:34.464Z,19.87
2018-10-06T05:52:03.210Z,19.90
2018-10-06T05:54:32.020Z,18.23
2018-10-06T05:57:00.634Z,18.87
2018-10-06T05:59:29.282Z,18.97
2018-10-06T06:01:57.990Z,18.70
2018-10-06T06:04:26.642Z,17.63
2018-10-06T06:06:55.368Z,17.67
2018-10-06T06:09:24.147Z,17.73
2018-10-06T06:11:52.749Z,18.30
2018-10-06T06:14:21.449Z,18.00
2018-10-06T06:16:50.141Z,17.33
2018-10-06T06:19:18.835Z,17.53
2018-10-06T06:21:47.502Z,17.20
2018-10-06T06:24:16.219Z,17.73
2018-10-06T06:26:44.868Z,17.23
2018-10-06T06:29:13.583Z,17.63
2018-10-06T06:31:42.269Z,18.10
2018-10-06T06:34:11.255Z,16.60
2018-10-06T06:36:39.989Z,16.97
2018-10-06T06:39:09.388Z,16.87
2018-10-06T06:41:38.426Z,16.80
2018-10-06T06:44:07.358Z,17.43
2018-10-06T06:46:36.058Z,17.00
2018-10-06T06:49:04.846Z,16.97
2018-10-06T06:51:33.554Z,16.47
2018-10-06T06:54:02.125Z,15.97
2018-10-06T06:56:30.759Z,16.37
2018-10-06T06:58:59.467Z,16.57
2018-10-06T07:01:28.060Z,17.77
2018-10-06T07:03:56.773Z,17.17
2018-10-06T07:06:25.751Z,16.63
2018-10-06T07:08:54.493Z,16.40
2018-10-06T07:11:23.209Z,17.70
2018-10-06T07:13:51.837Z,17.07
2018-10-06T07:16:20.594Z,17.53
2018-10-06T07:18:49.256Z,16.63
2018-10-06T07:21:17.994Z,16.77
2018-10-06T07:23:46.761Z,16.97
2018-10-06T07:26:15.427Z,16.83
2018-10-06T07:28:44.131Z,16.30
2018-10-06T07:31:12.934Z,17.20
2018-10-06T07:33:41.700Z,17.10
2018-10-06T07:36:10.390Z,17.80
2018-10-06T07:38:39.097Z,18.20
2018-10-06T07:41:07.737Z,17.03
2018-10-06T07:43:36.368Z,17.93
2018-10-06T07:46:05.139Z,17.00
2018-10-06T07:48:33.908Z,17.23
2018-10-06T07:51:02.544Z,16.73
2018-10-06T07:53:31.173Z,17.20
2018-10-06T07:55:59.873Z,17.07
2018-10-06T07:58:28.526Z,17.70
2018-10-06T08:00:57.147Z,17.03
2018-10-06T08:03:25.950Z,16.90
2018-10-06T08:05:54.606Z,17.90
2018-10-06T08:08:23.286Z,16.73
2018-10-06T08:10:51.910Z,16.43
2018-10-06T08:13:21.092Z,17.10
2018-10-06T08:15:49.770Z,17.87
2018-10-06T08:18:18.498Z,17.53
2018-10-06T08:20:47.210Z,17.53
2018-10-06T08:23:15.828Z,16.70
2018-10-06T08:25:44.559Z,17.73
2018-10-06T08:28:13.317Z,17.27
2018-10-06T08:30:42.088Z,16.83
2018-10-06T08:33:10.800Z,16.23
2018-10-06T08:35:40.192Z,17.17
2018-10-06T08:38:08.927Z,16.63
2018-10-06T08:40:37.657Z,17.07
2018-10-06T08:43:06.459Z,17.07
2018-10-06T08:45:35.154Z,15.93
2018-10-06T08:48:03.833Z,16.10
2018-10-06T08:50:32.561Z,16.70
2018-10-06T08:53:01.286Z,15.50
2018-10-06T08:55:29.971Z,16.27
2018-10-06T08:57:58.618Z,15.73
2018-10-06T09:00:27.235Z,16.03
2018-10-06T09:02:56.018Z,14.93
2018-10-06T09:05:24.774Z,14.70
2018-10-06T09:07:53.529Z,15.57
2018-10-06T09:10:22.281Z,15.03
2018-10-06T09:12:50.989Z,14.73
2018-10-06T09:15:19.653Z,14.10
2018-10-06T09:17:48.490Z,13.90
2018-10-06T09:20:17.103Z,12.63
2018-10-06T09:22:45.741Z,13.10
2018-10-06T09:25:14.358Z,13.00
2018-10-06T09:27:43.082Z,12.20
2018-10-06T09:30:11.775Z,12.33
2018-10-06T09:32:40.450Z,12.43
2018-10-06T09:35:09.139Z,12.03
2018-10-06T09:37:37.870Z,11.60
2018-10-06T09:40:06.640Z,12.23
2018-10-06T09:42:35.453Z,11.23
2018-10-06T09:45:04.182Z,12.07
2018-10-06T09:47:32.913Z,11.47
2018-10-06T09:50:01.712Z,11.50
2018-10-06T09:52:30.712Z,10.70
2018-10-06T09:54:59.511Z,11.70
2018-10-06T09:57:28.349Z,11.03
2018-10-06T09:59:57.101Z,11.23
2018-10-06T10:02:30.971Z,10.90
2018-10-06T10:05:04.875Z,10.90
2018-10-06T10:07:34.827Z,10.53
2018-10-06T10:10:04.155Z,10.70
2018-10-06T10:12:33.381Z,10.67
2018-10-06T10:15:02.027Z,11.30
2018-10-06T10:17:30.887Z,10.93
2018-10-06T10:19:59.554Z,10.97
2018-10-06T10:22:28.396Z,10.80
2018-10-06T10:24:57.058Z,10.60
2018-10-06T10:27:25.684Z,11.17
2018-10-06T10:29:54.341Z,10.90
2018-10-06T10:32:23.034Z,10.60
2018-10-06T10:34:51.801Z,11.00
2018-10-06T10:37:20.521Z,11.40
2018-10-06T10:39:49.279Z,12.27
2018-10-06T10:42:17.961Z,11.03
2018-10-06T10:44:46.714Z,11.33
2018-10-06T10:47:16.084Z,10.40
2018-10-06T10:49:44.774Z,10.40
2018-10-06T10:52:13.466Z,11.83
2018-10-06T10:54:42.123Z,10.67
2018-10-06T10:57:11.088Z,10.67
2018-10-06T10:59:39.918Z,10.40
2018-10-06T11:02:08.634Z,10.90
2018-10-06T11:04:38.395Z,9.50
2018-10-06T11:07:07.246Z,10.37
2018-10-06T11:09:36.017Z,9.73
2018-10-06T11:12:04.704Z,9.50
2018-10-06T11:14:33.338Z,9.00
2018-10-06T11:17:02.092Z,10.40
2018-10-06T11:19:30.870Z,9.77
2018-10-06T11:21:59.613Z,8.53
2018-10-06T11:24:28.737Z,9.17
2018-10-06T11:26:57.572Z,9.07
2018-10-06T11:29:26.390Z,7.57
2018-10-06T11:31:55.229Z,8.37
2018-10-06T11:34:24.119Z,8.30
2018-10-06T11:36:53.053Z,8.83
2018-10-06T11:39:21.728Z,8.47
2018-10-06T11:41:50.391Z,8.33
2018-10-06T11:44:19.766Z,8.23
2018-10-06T11:46:48.489Z,7.07
2018-10-06T11:49:17.241Z,7.30
2018-10-06T11:51:46.062Z,6.67
2018-10-06T11:54:14.870Z,6.90
2018-10-06T11:56:43.714Z,7.43
2018-10-06T11:59:12.476Z,7.30
2018-10-06T12:01:41.372Z,7.63
2018-10-06T12:04:10.092Z,7.17
2018-10-06T12:06:38.860Z,7.13
2018-10-06T12:09:08.681Z,6.63
2018-10-06T12:11:37.601Z,7.00
2018-10-06T12:14:06.549Z,6.60
2018-10-06T12:16:35.560Z,6.00
2018-10-06T12:19:04.777Z,6.10
2018-10-06T12:21:33.552Z,5.50
2018-10-06T12:24:03.639Z,6.37
2018-10-06T12:26:32.403Z,5.97
2018-10-06T12:29:01.240Z,5.70
2018-10-06T12:31:30.054Z,6.10
2018-10-06T12:33:58.779Z,5.80
2018-10-06T12:36:27.541Z,5.30
2018-10-06T12:38:56.153Z,5.67
2018-10-06T12:41:24.938Z,5.80
2018-10-06T12:43:53.794Z,6.53
2018-10-06T12:46:22.559Z,6.27
2018-10-06T12:48:51.341Z,7.23
2018-10-06T12:51:20.193Z,6.00
2018-10-06T12:53:48.969Z,5.90
2018-10-06T12:56:17.687Z,5.17
2018-10-06T12:58:46.375Z,5.20
2018-10-06T13:01:16.136Z,5.00
2018-10-06T13:03:45.001Z,4.30
2018-10-06T13:06:14.356Z,4.73
2018-10-06T13:08:43.320Z,5.43
2018-10-06T13:11:12.084Z,5.73
2018-10-06T13:13:40.904Z,5.00
2018-10-06T13:16:09.690Z,5.50
2018-10-06T13:18:39.981Z,5.50
2018-10-06T13:21:08.800Z,4.57
2018-10-06T13:23:37.564Z,4.93
2018-10-06T13:26:06.335Z,4.63
2018-10-06T13:28:35.225Z,4.50
2018-10-06T13:31:04.059Z,4.67
2018-10-06T13:33:32.989Z,4.60
2018-10-06T13:36:01.807Z,4.83
2018-10-06T13:38:30.465Z,4.97
2018-10-06T13:40:59.235Z,4.47
2018-10-06T13:43:28.057Z,5.10
2018-10-06T13:45:58.023Z,4.87
2018-10-06T13:48:28.883Z,5.37
2018-10-06T13:50:57.744Z,4.90
2018-10-06T13:53:26.634Z,5.23
2018-10-06T13:55:57.376Z,5.00
2018-10-06T13:58:26.353Z,4.63
2018-10-06T14:00:55.134Z,4.90
2018-10-06T14:03:23.981Z,4.30
2018-10-06T14:05:52.712Z,4.53
2018-10-06T14:08:21.546Z,4.33
2018-10-06T14:10:50.332Z,4.80
2018-10-06T14:13:20.126Z,4.70
2018-10-06T14:15:48.804Z,4.60
2018-10-06T14:18:17.562Z,4.77
2018-10-06T14:20:46.362Z,4.67
2018-10-06T14:23:15.089Z,4.80
2018-10-06T14:25:43.814Z,4.77
2018-10-06T14:28:12.611Z,5.10
2018-10-06T14:30:41.317Z,5.87
2018-10-06T14:33:10.137Z,5.53
2018-10-06T14:35:38.872Z,5.60
2018-10-06T14:38:08.819Z,6.90
2018-10-06T14:40:37.649Z,5.77
2018-10-06T14:43:06.404Z,5.50
2018-10-06T14:45:35.774Z,5.90
2018-10-06T14:48:05.063Z,5.87
2018-10-06T14:50:34.518Z,6.00
2018-10-06T14:53:03.204Z,6.43
2018-10-06T14:55:31.838Z,5.70
2018-10-06T14:58:00.706Z,7.90
2018-10-06T15:00:30.077Z,8.90
2018-10-06T15:03:01.370Z,9.70
2018-10-06T15:05:30.594Z,9.50
2018-10-06T15:07:59.271Z,8.90
2018-10-06T15:10:28.111Z,9.70
2018-10-06T15:12:56.751Z,9.53
2018-10-06T15:15:25.583Z,9.60
2018-10-06T15:17:54.333Z,10.47
2018-10-06T15:20:23.010Z,10.20
2018-10-06T15:22:51.792Z,10.20
2018-10-06T15:25:20.661Z,10.27
2018-10-06T15:27:49.565Z,10.77
2018-10-06T15:30:19.600Z,10.97
2018-10-06T15:32:48.884Z,10.53
2018-10-06T15:35:17.627Z,9.57
2018-10-06T15:37:46.624Z,10.23
2018-10-06T15:40:15.355Z,11.30
2018-10-06T15:42:43.998Z,10.57
2018-10-06T15:45:12.931Z,10.90
2018-10-06T15:47:41.601Z,10.47
2018-10-06T15:50:10.331Z,10.40
2018-10-06T15:52:38.983Z,10.53
2018-10-06T15:55:07.770Z,10.20
2018-10-06T15:57:36.457Z,10.30
2018-10-06T16:00:05.221Z,11.37
2018-10-06T16:02:34.315Z,11.20
2018-10-06T16:05:03.085Z,11.17
2018-10-06T16:07:31.855Z,11.70
2018-10-06T16:10:00.558Z,11.90
2018-10-06T16:12:29.336Z,11.80
2018-10-06T16:14:57.945Z,11.67
2018-10-06T16:17:26.648Z,10.97
2018-10-06T16:19:55.366Z,10.23
2018-10-06T16:22:24.077Z,10.27
2018-10-06T16:24:52.782Z,10.30
2018-10-06T16:27:21.714Z,9.77
2018-10-06T16:29:50.569Z,10.33
2018-10-06T16:32:19.368Z,9.97
2018-10-06T16:34:48.100Z,9.63
2018-10-06T16:37:16.794Z,9.37
2018-10-06T16:39:45.601Z,9.43
2018-10-06T16:42:14.381Z,9.53
2018-10-06T16:44:43.130Z,10.07
2018-10-06T16:47:11.923Z,11.13
2018-10-06T16:49:40.842Z,12.23
2018-10-06T16:52:09.663Z,14.77
2018-10-06T16:54:38.345Z,11.80
2018-10-06T16:57:07.225Z,11.43
2018-10-06T16:59:35.958Z,10.47
2018-10-06T17:02:05.099Z,13.23
2018-10-06T17:04:35.434Z,24.70
2018-10-06T17:07:04.227Z,12.97
2018-10-06T17:09:37.771Z,17.27
2018-10-06T17:12:15.304Z,24.87
2018-10-06T17:15:04.932Z,25.70
2018-10-06T17:17:43.517Z,25.77
2018-10-06T17:20:22.861Z,37.17
2018-10-06T17:22:54.410Z,32.23
2018-10-06T17:25:29.900Z,18.33
2018-10-06T17:28:01.057Z,27.87
2018-10-06T17:30:33.105Z,17.80
2018-10-06T17:33:09.752Z,18.60
2018-10-06T17:35:42.634Z,28.87
2018-10-06T17:38:11.686Z,18.83
2018-10-06T17:40:40.757Z,24.10
2018-10-06T17:43:09.670Z,19.70
2018-10-06T17:45:38.627Z,27.13
2018-10-06T17:48:07.413Z,20.07
2018-10-06T17:50:36.352Z,18.33
2018-10-06T17:53:04.898Z,17.60
2018-10-06T17:55:33.904Z,25.87
2018-10-06T17:58:06.422Z,25.77
2018-10-06T18:00:35.154Z,27.63
2018-10-06T18:03:03.979Z,25.53
2018-10-06T18:05:32.835Z,43.63
2018-10-06T18:08:02.500Z,29.77
2018-10-06T18:10:31.293Z,25.17
2018-10-06T18:13:00.190Z,20.77
2018-10-06T18:15:28.948Z,21.43
2018-10-06T18:17:57.764Z,27.40
2018-10-06T18:20:26.683Z,27.63
2018-10-06T18:22:55.379Z,26.83
2018-10-06T18:25:24.139Z,21.73
2018-10-06T18:27:52.934Z,28.27
2018-10-06T18:30:21.776Z,23.33
2018-10-06T18:32:50.568Z,19.47
2018-10-06T18:35:19.297Z,22.60
2018-10-06T18:37:47.995Z,18.27
2018-10-06T18:40:16.791Z,19.60
2018-10-06T18:42:45.584Z,21.27
2018-10-06T18:45:14.310Z,22.97
2018-10-06T18:47:42.978Z,22.77
2018-10-06T18:50:11.944Z,18.90
2018-10-06T18:52:40.633Z,23.53
2018-10-06T18:55:09.346Z,22.40
2018-10-06T18:57:38.552Z,19.67
2018-10-06T19:00:07.862Z,18.23
2018-10-06T19:02:36.642Z,17.60
2018-10-06T19:05:05.471Z,28.17
2018-10-06T19:07:34.038Z,18.53
2018-10-06T19:10:02.766Z,17.87
2018-10-06T19:12:31.385Z,18.37
2018-10-06T19:15:00.067Z,21.20
2018-10-06T19:17:29.599Z,22.33
2018-10-06T19:19:58.421Z,20.10
2018-10-06T19:22:27.068Z,23.23
2018-10-06T19:24:55.708Z,27.03
2018-10-06T19:27:24.348Z,22.53
2018-10-06T19:29:52.978Z,21.90
2018-10-06T19:32:21.642Z,22.43
2018-10-06T19:34:50.316Z,22.17
2018-10-06T19:37:19.065Z,26.00
2018-10-06T19:39:48.045Z,26.47
2018-10-06T19:42:16.732Z,26.70
2018-10-06T19:44:45.459Z,30.73
2018-10-06T19:47:14.154Z,25.97
2018-10-06T19:49:42.815Z,25.43
2018-10-06T19:52:11.485Z,28.07
2018-10-06T19:54:40.260Z,26.30
2018-10-06T19:57:08.938Z,26.70
2018-10-06T19:59:37.712Z,27.17
2018-10-06T20:02:06.619Z,29.13
2018-10-06T20:04:35.362Z,31.87
2018-10-06T20:07:04.026Z,32.60
2018-10-06T20:09:32.736Z,32.77
2018-10-06T20:12:01.360Z,35.73
2018-10-06T20:14:30.170Z,33.13
2018-10-06T20:16:58.964Z,44.63
2018-10-06T20:19:27.737Z,34.93
2018-10-06T20:21:56.390Z,47.37
2018-10-06T20:24:25.126Z,34.97
2018-10-06T20:26:53.843Z,37.03
2018-10-06T20:29:22.849Z,39.00
2018-10-06T20:31:51.591Z,38.60
2018-10-06T20:34:20.289Z,38.40
2018-10-06T20:36:49.202Z,39.80
2018-10-06T20:39:17.951Z,39.03
2018-10-06T20:41:46.736Z,40.50
2018-10-06T20:44:18.377Z,42.67
2018-10-06T20:46:47.230Z,39.77
2018-10-06T20:49:15.950Z,41.60
2018-10-06T20:51:44.665Z,43.60
2018-10-06T20:54:13.274Z,44.30
2018-10-06T20:56:41.919Z,43.23
2018-10-06T20:59:10.535Z,45.63
2018-10-06T21:01:39.228Z,45.50
2018-10-06T21:04:07.846Z,44.43
2018-10-06T21:06:36.496Z,45.67
2018-10-06T21:09:07.981Z,47.43
2018-10-06T21:11:36.628Z,51.50
2018-10-06T21:14:05.281Z,45.90
2018-10-06T21:16:33.968Z,45.00
2018-10-06T21:19:02.663Z,49.30
2018-10-06T21:21:31.320Z,44.77
2018-10-06T21:23:59.939Z,44.73
2018-10-06T21:26:28.576Z,45.27
2018-10-06T21:28:57.227Z,46.90
2018-10-06T21:31:26.078Z,51.13
2018-10-06T21:33:54.704Z,51.60
2018-10-06T21:36:23.355Z,45.60
2018-10-06T21:38:52.094Z,48.90
2018-10-06T21:41:20.830Z,44.47
2018-10-06T21:43:49.520Z,45.00
2018-10-06T21:46:18.216Z,45.07
2018-10-06T21:48:46.934Z,44.63
2018-10-06T21:51:15.585Z,45.57
2018-10-06T21:53:44.251Z,46.33
2018-10-06T21:56:13.270Z,47.23
2018-10-06T21:58:42.010Z,46.10
2018-10-06T22:01:12.811Z,46.43
2018-10-06T22:03:41.877Z,45.80
2018-10-06T22:06:10.567Z,46.53
2018-10-06T22:08:39.459Z,49.77
2018-10-06T22:11:08.153Z,49.63
2018-10-06T22:13:36.829Z,49.67
2018-10-06T22:16:05.530Z,50.53
2018-10-06T22:18:34.182Z,51.23
2018-10-06T22:21:03.895Z,50.23
2018-10-06T22:23:32.545Z,51.70
2018-10-06T22:26:01.211Z,52.70
2018-10-06T22:28:29.898Z,55.83
2018-10-06T22:30:58.627Z,57.27
2018-10-06T22:33:27.247Z,56.57
2018-10-06T22:35:55.954Z,56.70
2018-10-06T22:38:24.612Z,56.43
2018-10-06T22:40:53.289Z,56.83
2018-10-06T22:43:21.958Z,55.93
2018-10-06T22:45:50.626Z,55.67
2018-10-06T22:48:19.275Z,56.67
2018-10-06T22:50:48.016Z,55.60
2018-10-06T22:53:16.755Z,54.93
2018-10-06T22:55:45.443Z,56.43
2018-10-06T22:58:14.172Z,56.33
2018-10-06T23:00:42.841Z,55.53
2018-10-06T23:03:11.531Z,55.40
2018-10-06T23:05:40.310Z,56.83
2018-10-06T23:08:09.067Z,56.30
2018-10-06T23:10:37.739Z,53.93
2018-10-06T23:13:06.382Z,54.27
2018-10-06T23:15:35.093Z,52.90
2018-10-06T23:18:03.747Z,52.20
2018-10-06T23:20:32.401Z,51.97
2018-10-06T23:23:01.211Z,50.20
2018-10-06T23:25:29.835Z,49.83
2018-10-06T23:27:58.490Z,47.37
2018-10-06T23:30:27.159Z,44.90
2018-10-06T23:32:56.073Z,45.07
2018-10-06T23:35:24.746Z,43.13
2018-10-06T23:37:53.386Z,39.57
2018-10-06T23:40:22.090Z,39.77
2018-10-06T23:42:50.716Z,37.50
2018-10-06T23:45:19.434Z,37.07
2018-10-06T23:47:48.168Z,37.93
2018-10-06T23:50:16.841Z,35.00
2018-10-06T23:52:45.522Z,32.33
2018-10-06T23:55:14.243Z,29.07
2018-10-06T23:57:42.900Z,29.50
